This is the latest recevied weather packets stored in our database for station/object N3WMC. If no packets are shown the sender has not sent any weather packets the latest 10 day(s).
| Time | Temp. | Humidity | Pressure | Rain* | Wind** | Luminosity | Snow |
|---|---|---|---|---|---|---|---|
| 1787778749 | 27.22° C | 44% | 1016.4 hPa | 0 mm | - | 220 W/m² | - |
| 1787778445 | 27.78° C | 44% | 1016.5 hPa | 0 mm | - | 238 W/m² | - |
| 1787778140 | 27.78° C | 46% | 1016.6 hPa | 0 mm | - | 240 W/m² | - |
| 1787777834 | 27.78° C | 45% | 1016.6 hPa | 0 mm | - | 240 W/m² | - |
| 1787777530 | 27.78° C | 44% | 1016.6 hPa | 0 mm | - | 265 W/m² | - |
| 1787777225 | 27.78° C | 44% | 1016.6 hPa | 0 mm | - | 282 W/m² | - |
| 1787776924 | 27.78° C | 47% | 1016.8 hPa | 0 mm | - | 297 W/m² | - |
| 1787776623 | 27.78° C | 46% | 1016.6 hPa | 0 mm | - | 286 W/m² | - |
| 1787776323 | 27.22° C | 44% | 1016.7 hPa | 0 mm | - | 309 W/m² | - |
| 1787776021 | 27.78° C | 43% | 1016.6 hPa | 0 mm | - | 324 W/m² | - |
| 1787775716 | 27.78° C | 46% | 1016.7 hPa | 0 mm | - | 335 W/m² | - |
| 1787775414 | 27.78° C | 46% | 1016.5 hPa | 0 mm | - | 342 W/m² | - |
| 1787775108 | 27.78° C | 47% | 1016.5 hPa | 0 mm | - | 355 W/m² | - |
| 1787774808 | 27.78° C | 49% | 1016.8 hPa | 0 mm | - | 361 W/m² | - |
| 1787774507 | 27.78° C | 49% | 1016.6 hPa | 0 mm | - | 389 W/m² | - |
| 1787774207 | 27.78° C | 49% | 1016.5 hPa | 0 mm | - | 394 W/m² | - |
| 1787773905 | 28.33° C | 50% | 1016.8 hPa | 0 mm | - | 401 W/m² | - |
| 1787773604 | 27.78° C | 51% | 1016.8 hPa | 0 mm | - | 413 W/m² | - |
| 1787773301 | 27.78° C | 48% | 1016.8 hPa | 0 mm | - | 430 W/m² | - |
| 1787772995 | 27.78° C | 51% | 1016.8 hPa | 0 mm | - | 433 W/m² | - |
| 1787772691 | 27.22° C | 52% | 1017 hPa | 0 mm | - | 450 W/m² | - |
| 1787772390 | 26.67° C | 56% | 1017.1 hPa | 0 mm | - | 449 W/m² | - |
| 1787772089 | 28.33° C | 51% | 1016.9 hPa | 0 mm | - | 106 W/m² | - |
| 1787771784 | 27.22° C | 51% | 1017.3 hPa | 0 mm | - | 514 W/m² | - |
| 1787771482 | 27.22° C | 53% | 1017 hPa | 0 mm | - | 510 W/m² | - |
* Rain latest hour (hover to see other rain measurements)
** Current wind speed in m/s (hover to see current wind gust speed)